sensor_id;sensor_type;location;lat;lon;timestamp;P1;durP1;ratioP1;P2;durP2;ratioP2
8331;SDS011;4203;48.144;14.118;2024-03-29T00:00:02;2.80;;;2.63;;
8331;SDS011;4203;48.144;14.118;2024-03-29T00:02:29;2.90;;;2.70;;
8331;SDS011;4203;48.144;14.118;2024-03-29T00:04:56;3.23;;;3.03;;
8331;SDS011;4203;48.144;14.118;2024-03-29T00:07:22;3.50;;;3.27;;
8331;SDS011;4203;48.144;14.118;2024-03-29T00:09:51;3.37;;;3.13;;
8331;SDS011;4203;48.144;14.118;2024-03-29T00:12:17;3.27;;;3.07;;
8331;SDS011;4203;48.144;14.118;2024-03-29T00:14:43;3.47;;;3.17;;
8331;SDS011;4203;48.144;14.118;2024-03-29T00:17:10;3.40;;;3.20;;
8331;SDS011;4203;48.144;14.118;2024-03-29T00:19:38;3.10;;;2.80;;
8331;SDS011;4203;48.144;14.118;2024-03-29T00:22:05;3.50;;;3.20;;
8331;SDS011;4203;48.144;14.118;2024-03-29T00:24:34;3.57;;;3.27;;
8331;SDS011;4203;48.144;14.118;2024-03-29T00:27:04;2.90;;;2.70;;
8331;SDS011;4203;48.144;14.118;2024-03-29T00:29:31;3.00;;;2.80;;
8331;SDS011;4203;48.144;14.118;2024-03-29T00:32:01;3.03;;;2.87;;
8331;SDS011;4203;48.144;14.118;2024-03-29T00:34:28;3.00;;;2.80;;
8331;SDS011;4203;48.144;14.118;2024-03-29T00:36:55;3.40;;;3.10;;
8331;SDS011;4203;48.144;14.118;2024-03-29T00:39:21;2.93;;;2.73;;
8331;SDS011;4203;48.144;14.118;2024-03-29T00:41:48;3.53;;;3.23;;
8331;SDS011;4203;48.144;14.118;2024-03-29T00:44:16;3.30;;;3.10;;
8331;SDS011;4203;48.144;14.118;2024-03-29T00:46:42;3.50;;;3.20;;
8331;SDS011;4203;48.144;14.118;2024-03-29T00:49:09;2.97;;;2.83;;
8331;SDS011;4203;48.144;14.118;2024-03-29T00:51:36;2.90;;;2.70;;
8331;SDS011;4203;48.144;14.118;2024-03-29T00:54:02;3.37;;;3.17;;
8331;SDS011;4203;48.144;14.118;2024-03-29T00:56:30;3.43;;;3.23;;
8331;SDS011;4203;48.144;14.118;2024-03-29T00:58:56;3.40;;;3.17;;
8331;SDS011;4203;48.144;14.118;2024-03-29T01:01:24;3.70;;;3.40;;
8331;SDS011;4203;48.144;14.118;2024-03-29T01:03:50;3.70;;;3.50;;
8331;SDS011;4203;48.144;14.118;2024-03-29T01:06:21;4.20;;;3.80;;
8331;SDS011;4203;48.144;14.118;2024-03-29T01:08:48;4.47;;;4.07;;
8331;SDS011;4203;48.144;14.118;2024-03-29T01:11:14;5.00;;;4.60;;
8331;SDS011;4203;48.144;14.118;2024-03-29T01:13:41;3.90;;;3.60;;
8331;SDS011;4203;48.144;14.118;2024-03-29T01:16:07;3.97;;;3.67;;
8331;SDS011;4203;48.144;14.118;2024-03-29T01:18:35;4.70;;;4.30;;
8331;SDS011;4203;48.144;14.118;2024-03-29T01:21:01;3.47;;;3.17;;
8331;SDS011;4203;48.144;14.118;2024-03-29T01:23:28;3.73;;;3.43;;
8331;SDS011;4203;48.144;14.118;2024-03-29T01:25:56;4.77;;;3.50;;
8331;SDS011;4203;48.144;14.118;2024-03-29T01:28:23;3.70;;;3.50;;
8331;SDS011;4203;48.144;14.118;2024-03-29T01:30:52;3.70;;;3.40;;
8331;SDS011;4203;48.144;14.118;2024-03-29T01:33:18;5.47;;;4.20;;
8331;SDS011;4203;48.144;14.118;2024-03-29T01:35:48;4.93;;;4.30;;
8331;SDS011;4203;48.144;14.118;2024-03-29T01:38:14;5.30;;;4.80;;
8331;SDS011;4203;48.144;14.118;2024-03-29T01:40:41;7.60;;;5.13;;
8331;SDS011;4203;48.144;14.118;2024-03-29T01:43:07;4.77;;;4.37;;
8331;SDS011;4203;48.144;14.118;2024-03-29T01:45:35;6.60;;;5.37;;
8331;SDS011;4203;48.144;14.118;2024-03-29T01:48:06;6.53;;;5.87;;
8331;SDS011;4203;48.144;14.118;2024-03-29T01:50:34;5.43;;;4.93;;
8331;SDS011;4203;48.144;14.118;2024-03-29T01:53:05;7.63;;;6.83;;
8331;SDS011;4203;48.144;14.118;2024-03-29T01:55:35;7.00;;;6.30;;
8331;SDS011;4203;48.144;14.118;2024-03-29T01:58:03;6.73;;;6.03;;
8331;SDS011;4203;48.144;14.118;2024-03-29T02:00:31;6.00;;;5.40;;
8331;SDS011;4203;48.144;14.118;2024-03-29T02:02:59;7.80;;;6.03;;
8331;SDS011;4203;48.144;14.118;2024-03-29T02:05:29;7.03;;;6.03;;
8331;SDS011;4203;48.144;14.118;2024-03-29T02:07:57;7.37;;;6.23;;
8331;SDS011;4203;48.144;14.118;2024-03-29T02:10:26;8.53;;;7.17;;
8331;SDS011;4203;48.144;14.118;2024-03-29T02:12:54;8.57;;;7.67;;
8331;SDS011;4203;48.144;14.118;2024-03-29T02:15:23;9.57;;;7.67;;
8331;SDS011;4203;48.144;14.118;2024-03-29T02:17:51;10.33;;;8.73;;
8331;SDS011;4203;48.144;14.118;2024-03-29T02:20:18;12.27;;;9.50;;
8331;SDS011;4203;48.144;14.118;2024-03-29T02:22:46;10.10;;;8.73;;
8331;SDS011;4203;48.144;14.118;2024-03-29T02:25:19;8.87;;;7.53;;
8331;SDS011;4203;48.144;14.118;2024-03-29T02:27:47;10.40;;;8.93;;
8331;SDS011;4203;48.144;14.118;2024-03-29T02:30:15;12.60;;;8.33;;
8331;SDS011;4203;48.144;14.118;2024-03-29T02:32:43;7.70;;;6.90;;
8331;SDS011;4203;48.144;14.118;2024-03-29T02:35:10;9.53;;;8.00;;
8331;SDS011;4203;48.144;14.118;2024-03-29T02:37:38;10.30;;;8.33;;
8331;SDS011;4203;48.144;14.118;2024-03-29T02:40:06;9.20;;;8.13;;
8331;SDS011;4203;48.144;14.118;2024-03-29T02:42:36;8.90;;;8.00;;
8331;SDS011;4203;48.144;14.118;2024-03-29T02:45:03;9.63;;;8.10;;
8331;SDS011;4203;48.144;14.118;2024-03-29T02:47:31;9.70;;;8.50;;
8331;SDS011;4203;48.144;14.118;2024-03-29T02:49:58;10.43;;;8.97;;
8331;SDS011;4203;48.144;14.118;2024-03-29T02:52:24;10.13;;;8.60;;
8331;SDS011;4203;48.144;14.118;2024-03-29T02:54:56;9.73;;;8.20;;
8331;SDS011;4203;48.144;14.118;2024-03-29T02:57:22;10.43;;;8.77;;
8331;SDS011;4203;48.144;14.118;2024-03-29T02:59:51;9.30;;;7.90;;
8331;SDS011;4203;48.144;14.118;2024-03-29T03:02:17;8.57;;;7.53;;
8331;SDS011;4203;48.144;14.118;2024-03-29T03:04:44;9.20;;;7.80;;
8331;SDS011;4203;48.144;14.118;2024-03-29T03:07:11;8.43;;;7.57;;
8331;SDS011;4203;48.144;14.118;2024-03-29T03:09:55;9.73;;;7.73;;
8331;SDS011;4203;48.144;14.118;2024-03-29T03:12:40;8.77;;;7.27;;
8331;SDS011;4203;48.144;14.118;2024-03-29T03:15:09;8.37;;;7.27;;
8331;SDS011;4203;48.144;14.118;2024-03-29T03:17:36;7.67;;;6.30;;
8331;SDS011;4203;48.144;14.118;2024-03-29T03:20:04;8.70;;;6.73;;
8331;SDS011;4203;48.144;14.118;2024-03-29T03:22:32;7.20;;;6.17;;
8331;SDS011;4203;48.144;14.118;2024-03-29T03:24:59;6.70;;;6.10;;
8331;SDS011;4203;48.144;14.118;2024-03-29T03:27:25;7.37;;;6.50;;
8331;SDS011;4203;48.144;14.118;2024-03-29T03:29:53;6.47;;;5.87;;
8331;SDS011;4203;48.144;14.118;2024-03-29T03:32:21;7.03;;;6.00;;
8331;SDS011;4203;48.144;14.118;2024-03-29T03:34:48;9.40;;;6.03;;
8331;SDS011;4203;48.144;14.118;2024-03-29T03:37:14;5.83;;;5.30;;
8331;SDS011;4203;48.144;14.118;2024-03-29T03:39:41;6.77;;;6.10;;
8331;SDS011;4203;48.144;14.118;2024-03-29T03:42:07;6.40;;;5.80;;
8331;SDS011;4203;48.144;14.118;2024-03-29T03:44:36;6.73;;;5.97;;
8331;SDS011;4203;48.144;14.118;2024-03-29T03:47:03;6.83;;;5.37;;
8331;SDS011;4203;48.144;14.118;2024-03-29T03:49:32;7.13;;;5.80;;
8331;SDS011;4203;48.144;14.118;2024-03-29T03:51:58;8.33;;;6.97;;
8331;SDS011;4203;48.144;14.118;2024-03-29T03:54:25;6.13;;;5.50;;
8331;SDS011;4203;48.144;14.118;2024-03-29T03:56:53;6.07;;;5.47;;
8331;SDS011;4203;48.144;14.118;2024-03-29T03:59:20;6.20;;;5.60;;
8331;SDS011;4203;48.144;14.118;2024-03-29T04:01:46;6.17;;;5.27;;
8331;SDS011;4203;48.144;14.118;2024-03-29T04:04:16;6.37;;;4.93;;
8331;SDS011;4203;48.144;14.118;2024-03-29T04:06:44;5.53;;;5.00;;
8331;SDS011;4203;48.144;14.118;2024-03-29T04:09:13;5.50;;;5.00;;
8331;SDS011;4203;48.144;14.118;2024-03-29T04:11:41;5.17;;;4.70;;
8331;SDS011;4203;48.144;14.118;2024-03-29T04:14:08;5.40;;;4.90;;
8331;SDS011;4203;48.144;14.118;2024-03-29T04:16:35;4.33;;;3.93;;
8331;SDS011;4203;48.144;14.118;2024-03-29T04:19:02;6.27;;;4.17;;
8331;SDS011;4203;48.144;14.118;2024-03-29T04:21:29;3.97;;;3.67;;
8331;SDS011;4203;48.144;14.118;2024-03-29T04:23:56;4.37;;;4.07;;
8331;SDS011;4203;48.144;14.118;2024-03-29T04:26:24;4.03;;;3.67;;
8331;SDS011;4203;48.144;14.118;2024-03-29T04:28:50;4.20;;;3.90;;
8331;SDS011;4203;48.144;14.118;2024-03-29T04:31:17;4.30;;;4.00;;
8331;SDS011;4203;48.144;14.118;2024-03-29T04:33:44;4.27;;;3.80;;
8331;SDS011;4203;48.144;14.118;2024-03-29T04:36:11;5.10;;;4.60;;
8331;SDS011;4203;48.144;14.118;2024-03-29T04:38:37;5.00;;;4.60;;
8331;SDS011;4203;48.144;14.118;2024-03-29T04:41:06;4.93;;;4.37;;
8331;SDS011;4203;48.144;14.118;2024-03-29T04:43:33;4.73;;;4.33;;
8331;SDS011;4203;48.144;14.118;2024-03-29T04:46:01;4.50;;;4.10;;
8331;SDS011;4203;48.144;14.118;2024-03-29T04:48:29;5.87;;;4.50;;
8331;SDS011;4203;48.144;14.118;2024-03-29T04:50:56;4.03;;;3.73;;
8331;SDS011;4203;48.144;14.118;2024-03-29T04:53:24;4.73;;;4.17;;
8331;SDS011;4203;48.144;14.118;2024-03-29T04:55:54;4.83;;;4.43;;
8331;SDS011;4203;48.144;14.118;2024-03-29T04:58:23;4.60;;;4.20;;
8331;SDS011;4203;48.144;14.118;2024-03-29T05:00:51;4.77;;;4.03;;
8331;SDS011;4203;48.144;14.118;2024-03-29T05:03:18;4.80;;;4.40;;
8331;SDS011;4203;48.144;14.118;2024-03-29T05:05:49;4.93;;;4.30;;
8331;SDS011;4203;48.144;14.118;2024-03-29T05:08:17;4.80;;;4.37;;
8331;SDS011;4203;48.144;14.118;2024-03-29T05:10:46;4.30;;;4.00;;
8331;SDS011;4203;48.144;14.118;2024-03-29T05:13:13;4.10;;;3.80;;
8331;SDS011;4203;48.144;14.118;2024-03-29T05:15:42;4.50;;;4.10;;
8331;SDS011;4203;48.144;14.118;2024-03-29T05:18:10;4.40;;;4.00;;
8331;SDS011;4203;48.144;14.118;2024-03-29T05:20:37;4.00;;;3.70;;
8331;SDS011;4203;48.144;14.118;2024-03-29T05:23:06;4.17;;;3.87;;
8331;SDS011;4203;48.144;14.118;2024-03-29T05:25:34;4.77;;;4.20;;
8331;SDS011;4203;48.144;14.118;2024-03-29T05:28:01;4.13;;;3.83;;
8331;SDS011;4203;48.144;14.118;2024-03-29T05:30:31;4.20;;;3.80;;
8331;SDS011;4203;48.144;14.118;2024-03-29T05:33:00;3.50;;;3.30;;
8331;SDS011;4203;48.144;14.118;2024-03-29T05:35:29;4.40;;;4.00;;
8331;SDS011;4203;48.144;14.118;2024-03-29T05:37:56;4.20;;;3.90;;
8331;SDS011;4203;48.144;14.118;2024-03-29T05:40:24;3.97;;;3.63;;
8331;SDS011;4203;48.144;14.118;2024-03-29T05:42:52;3.80;;;3.50;;
8331;SDS011;4203;48.144;14.118;2024-03-29T05:45:24;3.97;;;3.67;;
8331;SDS011;4203;48.144;14.118;2024-03-29T05:47:53;3.83;;;3.53;;
8331;SDS011;4203;48.144;14.118;2024-03-29T05:50:23;4.10;;;3.50;;
8331;SDS011;4203;48.144;14.118;2024-03-29T05:52:51;3.70;;;3.40;;
8331;SDS011;4203;48.144;14.118;2024-03-29T05:55:21;3.43;;;3.13;;
8331;SDS011;4203;48.144;14.118;2024-03-29T05:57:48;4.27;;;3.00;;
8331;SDS011;4203;48.144;14.118;2024-03-29T06:00:16;3.77;;;3.47;;
8331;SDS011;4203;48.144;14.118;2024-03-29T06:02:43;3.63;;;3.33;;
8331;SDS011;4203;48.144;14.118;2024-03-29T06:05:14;7.70;;;3.50;;
8331;SDS011;4203;48.144;14.118;2024-03-29T06:07:43;3.40;;;3.20;;
8331;SDS011;4203;48.144;14.118;2024-03-29T06:10:14;2.80;;;2.70;;
8331;SDS011;4203;48.144;14.118;2024-03-29T06:12:42;3.30;;;3.00;;
8331;SDS011;4203;48.144;14.118;2024-03-29T06:15:14;2.70;;;2.50;;
8331;SDS011;4203;48.144;14.118;2024-03-29T06:17:59;2.90;;;2.70;;
8331;SDS011;4203;48.144;14.118;2024-03-29T06:20:27;2.73;;;2.63;;
8331;SDS011;4203;48.144;14.118;2024-03-29T06:22:56;2.83;;;2.63;;
8331;SDS011;4203;48.144;14.118;2024-03-29T06:28:01;2.43;;;2.30;;
8331;SDS011;4203;48.144;14.118;2024-03-29T06:30:28;2.40;;;2.20;;
8331;SDS011;4203;48.144;14.118;2024-03-29T06:32:56;2.53;;;2.40;;
8331;SDS011;4203;48.144;14.118;2024-03-29T06:38:10;2.20;;;2.10;;
8331;SDS011;4203;48.144;14.118;2024-03-29T08:24:53;0.90;;;0.90;;
8331;SDS011;4203;48.144;14.118;2024-03-29T08:27:34;0.98;;;0.90;;
8331;SDS011;4203;48.144;14.118;2024-03-29T08:30:07;0.88;;;0.88;;
8331;SDS011;4203;48.144;14.118;2024-03-29T08:32:44;0.75;;;0.75;;
8331;SDS011;4203;48.144;14.118;2024-03-29T08:35:34;2.05;;;0.80;;
8331;SDS011;4203;48.144;14.118;2024-03-29T08:40:45;2.30;;;0.82;;
8331;SDS011;4203;48.144;14.118;2024-03-29T08:43:14;0.88;;;0.88;;
8331;SDS011;4203;48.144;14.118;2024-03-29T08:45:43;0.70;;;0.70;;
8331;SDS011;4203;48.144;14.118;2024-03-29T08:48:10;0.90;;;0.90;;
8331;SDS011;4203;48.144;14.118;2024-03-29T08:50:38;1.50;;;0.68;;
8331;SDS011;4203;48.144;14.118;2024-03-29T08:53:05;0.60;;;0.60;;
8331;SDS011;4203;48.144;14.118;2024-03-29T08:55:33;0.65;;;0.65;;
8331;SDS011;4203;48.144;14.118;2024-03-29T08:58:03;1.08;;;0.98;;
8331;SDS011;4203;48.144;14.118;2024-03-29T09:00:30;0.82;;;0.82;;
8331;SDS011;4203;48.144;14.118;2024-03-29T09:02:58;3.13;;;0.80;;
8331;SDS011;4203;48.144;14.118;2024-03-29T09:05:35;0.95;;;0.80;;
8331;SDS011;4203;48.144;14.118;2024-03-29T09:08:02;0.65;;;0.60;;
8331;SDS011;4203;48.144;14.118;2024-03-29T09:10:30;0.70;;;0.70;;
8331;SDS011;4203;48.144;14.118;2024-03-29T09:12:57;0.57;;;0.57;;
8331;SDS011;4203;48.144;14.118;2024-03-29T09:15:26;0.70;;;0.70;;
8331;SDS011;4203;48.144;14.118;2024-03-29T09:17:53;0.70;;;0.70;;
8331;SDS011;4203;48.144;14.118;2024-03-29T09:20:20;0.60;;;0.60;;
8331;SDS011;4203;48.144;14.118;2024-03-29T09:22:50;0.43;;;0.43;;
8331;SDS011;4203;48.144;14.118;2024-03-29T09:25:19;1.90;;;0.60;;
8331;SDS011;4203;48.144;14.118;2024-03-29T09:27:46;0.60;;;0.60;;
8331;SDS011;4203;48.144;14.118;2024-03-29T09:30:14;0.82;;;0.70;;
8331;SDS011;4203;48.144;14.118;2024-03-29T09:32:43;0.68;;;0.68;;
8331;SDS011;4203;48.144;14.118;2024-03-29T09:35:10;0.70;;;0.70;;
8331;SDS011;4203;48.144;14.118;2024-03-29T09:37:37;0.50;;;0.50;;
8331;SDS011;4203;48.144;14.118;2024-03-29T09:40:05;1.05;;;0.90;;
8331;SDS011;4203;48.144;14.118;2024-03-29T09:42:33;0.60;;;0.60;;
8331;SDS011;4203;48.144;14.118;2024-03-29T09:45:02;0.80;;;0.80;;
8331;SDS011;4203;48.144;14.118;2024-03-29T09:47:31;0.55;;;0.55;;
8331;SDS011;4203;48.144;14.118;2024-03-29T09:50:02;0.50;;;0.50;;
8331;SDS011;4203;48.144;14.118;2024-03-29T09:52:31;0.63;;;0.63;;
8331;SDS011;4203;48.144;14.118;2024-03-29T09:54:59;0.82;;;0.57;;
8331;SDS011;4203;48.144;14.118;2024-03-29T09:57:27;1.25;;;0.82;;
8331;SDS011;4203;48.144;14.118;2024-03-29T09:59:56;0.60;;;0.60;;
8331;SDS011;4203;48.144;14.118;2024-03-29T10:02:25;0.55;;;0.55;;
8331;SDS011;4203;48.144;14.118;2024-03-29T10:04:55;0.85;;;0.65;;
8331;SDS011;4203;48.144;14.118;2024-03-29T10:07:25;1.70;;;0.60;;
8331;SDS011;4203;48.144;14.118;2024-03-29T10:09:54;0.57;;;0.57;;
8331;SDS011;4203;48.144;14.118;2024-03-29T10:12:24;0.50;;;0.50;;
8331;SDS011;4203;48.144;14.118;2024-03-29T10:14:51;1.83;;;0.70;;
8331;SDS011;4203;48.144;14.118;2024-03-29T10:17:20;0.57;;;0.57;;
8331;SDS011;4203;48.144;14.118;2024-03-29T10:19:47;0.77;;;0.70;;
8331;SDS011;4203;48.144;14.118;2024-03-29T10:22:14;1.27;;;0.70;;
8331;SDS011;4203;48.144;14.118;2024-03-29T10:24:43;0.60;;;0.50;;
8331;SDS011;4203;48.144;14.118;2024-03-29T10:27:10;1.55;;;0.82;;
8331;SDS011;4203;48.144;14.118;2024-03-29T10:29:38;0.55;;;0.55;;
8331;SDS011;4203;48.144;14.118;2024-03-29T10:32:06;0.63;;;0.63;;
8331;SDS011;4203;48.144;14.118;2024-03-29T10:34:34;0.60;;;0.60;;
8331;SDS011;4203;48.144;14.118;2024-03-29T10:37:03;0.90;;;0.73;;
8331;SDS011;4203;48.144;14.118;2024-03-29T10:39:30;0.70;;;0.70;;
8331;SDS011;4203;48.144;14.118;2024-03-29T10:42:00;0.85;;;0.70;;
8331;SDS011;4203;48.144;14.118;2024-03-29T10:44:28;0.50;;;0.50;;
8331;SDS011;4203;48.144;14.118;2024-03-29T10:46:56;0.50;;;0.50;;
8331;SDS011;4203;48.144;14.118;2024-03-29T10:49:24;0.75;;;0.63;;
8331;SDS011;4203;48.144;14.118;2024-03-29T10:51:51;0.77;;;0.60;;
8331;SDS011;4203;48.144;14.118;2024-03-29T10:54:22;0.63;;;0.47;;
8331;SDS011;4203;48.144;14.118;2024-03-29T10:56:52;0.70;;;0.70;;
8331;SDS011;4203;48.144;14.118;2024-03-29T10:59:29;1.20;;;0.50;;
8331;SDS011;4203;48.144;14.118;2024-03-29T11:02:05;0.43;;;0.40;;
8331;SDS011;4203;48.144;14.118;2024-03-29T11:04:39;0.73;;;0.60;;
8331;SDS011;4203;48.144;14.118;2024-03-29T11:07:11;1.00;;;0.90;;
8331;SDS011;4203;48.144;14.118;2024-03-29T11:09:42;1.10;;;0.63;;
8331;SDS011;4203;48.144;14.118;2024-03-29T11:12:10;0.50;;;0.50;;
8331;SDS011;4203;48.144;14.118;2024-03-29T11:14:42;0.55;;;0.55;;
8331;SDS011;4203;48.144;14.118;2024-03-29T11:17:12;0.40;;;0.40;;
8331;SDS011;4203;48.144;14.118;2024-03-29T11:19:40;0.85;;;0.68;;
8331;SDS011;4203;48.144;14.118;2024-03-29T11:22:08;2.53;;;0.52;;
8331;SDS011;4203;48.144;14.118;2024-03-29T11:24:38;1.85;;;0.63;;
8331;SDS011;4203;48.144;14.118;2024-03-29T11:27:09;0.75;;;0.60;;
8331;SDS011;4203;48.144;14.118;2024-03-29T11:29:36;2.30;;;0.52;;
8331;SDS011;4203;48.144;14.118;2024-03-29T11:32:11;0.50;;;0.50;;
8331;SDS011;4203;48.144;14.118;2024-03-29T11:34:43;0.70;;;0.63;;
8331;SDS011;4203;48.144;14.118;2024-03-29T11:37:11;1.20;;;0.50;;
8331;SDS011;4203;48.144;14.118;2024-03-29T11:39:39;0.60;;;0.60;;
8331;SDS011;4203;48.144;14.118;2024-03-29T11:42:06;0.70;;;0.70;;
8331;SDS011;4203;48.144;14.118;2024-03-29T11:44:34;0.60;;;0.60;;
8331;SDS011;4203;48.144;14.118;2024-03-29T11:47:02;0.60;;;0.60;;
8331;SDS011;4203;48.144;14.118;2024-03-29T11:49:33;0.57;;;0.57;;
8331;SDS011;4203;48.144;14.118;2024-03-29T11:52:04;0.60;;;0.60;;
8331;SDS011;4203;48.144;14.118;2024-03-29T11:54:38;0.60;;;0.60;;
8331;SDS011;4203;48.144;14.118;2024-03-29T11:57:05;0.60;;;0.57;;
8331;SDS011;4203;48.144;14.118;2024-03-29T11:59:33;0.47;;;0.47;;
8331;SDS011;4203;48.144;14.118;2024-03-29T12:02:00;0.57;;;0.57;;
8331;SDS011;4203;48.144;14.118;2024-03-29T12:04:30;1.00;;;0.85;;
8331;SDS011;4203;48.144;14.118;2024-03-29T12:06:58;0.57;;;0.52;;
8331;SDS011;4203;48.144;14.118;2024-03-29T12:09:25;2.25;;;0.65;;
8331;SDS011;4203;48.144;14.118;2024-03-29T12:11:52;0.50;;;0.50;;
8331;SDS011;4203;48.144;14.118;2024-03-29T12:14:23;1.77;;;0.80;;
8331;SDS011;4203;48.144;14.118;2024-03-29T12:16:52;1.48;;;0.77;;
8331;SDS011;4203;48.144;14.118;2024-03-29T12:19:24;0.82;;;0.60;;
8331;SDS011;4203;48.144;14.118;2024-03-29T12:21:52;0.80;;;0.80;;
8331;SDS011;4203;48.144;14.118;2024-03-29T12:24:20;3.60;;;0.45;;
8331;SDS011;4203;48.144;14.118;2024-03-29T12:26:48;2.78;;;0.47;;
8331;SDS011;4203;48.144;14.118;2024-03-29T12:29:16;0.50;;;0.50;;
8331;SDS011;4203;48.144;14.118;2024-03-29T12:31:43;1.08;;;0.65;;
8331;SDS011;4203;48.144;14.118;2024-03-29T12:34:20;2.35;;;0.75;;
8331;SDS011;4203;48.144;14.118;2024-03-29T12:36:49;1.70;;;0.70;;
8331;SDS011;4203;48.144;14.118;2024-03-29T12:39:16;0.50;;;0.50;;
8331;SDS011;4203;48.144;14.118;2024-03-29T12:41:46;0.60;;;0.60;;
8331;SDS011;4203;48.144;14.118;2024-03-29T12:44:13;0.57;;;0.57;;
8331;SDS011;4203;48.144;14.118;2024-03-29T12:46:41;0.73;;;0.50;;
8331;SDS011;4203;48.144;14.118;2024-03-29T12:49:10;0.70;;;0.60;;
8331;SDS011;4203;48.144;14.118;2024-03-29T12:51:39;0.75;;;0.50;;
8331;SDS011;4203;48.144;14.118;2024-03-29T12:54:08;0.82;;;0.82;;
8331;SDS011;4203;48.144;14.118;2024-03-29T12:56:36;1.27;;;0.50;;
8331;SDS011;4203;48.144;14.118;2024-03-29T12:59:05;0.40;;;0.40;;
8331;SDS011;4203;48.144;14.118;2024-03-29T13:01:33;1.58;;;0.60;;
8331;SDS011;4203;48.144;14.118;2024-03-29T13:04:00;0.63;;;0.60;;
8331;SDS011;4203;48.144;14.118;2024-03-29T13:06:28;1.10;;;0.40;;
8331;SDS011;4203;48.144;14.118;2024-03-29T13:08:56;2.83;;;0.60;;
8331;SDS011;4203;48.144;14.118;2024-03-29T13:11:24;1.17;;;0.70;;
8331;SDS011;4203;48.144;14.118;2024-03-29T13:13:52;0.40;;;0.40;;
8331;SDS011;4203;48.144;14.118;2024-03-29T13:16:19;0.47;;;0.47;;
8331;SDS011;4203;48.144;14.118;2024-03-29T13:18:46;1.05;;;0.73;;
8331;SDS011;4203;48.144;14.118;2024-03-29T13:21:14;0.65;;;0.50;;
8331;SDS011;4203;48.144;14.118;2024-03-29T13:23:41;3.13;;;0.85;;
8331;SDS011;4203;48.144;14.118;2024-03-29T13:26:08;0.52;;;0.52;;
8331;SDS011;4203;48.144;14.118;2024-03-29T13:28:37;0.50;;;0.50;;
8331;SDS011;4203;48.144;14.118;2024-03-29T13:31:05;0.63;;;0.50;;
8331;SDS011;4203;48.144;14.118;2024-03-29T13:33:32;0.63;;;0.63;;
8331;SDS011;4203;48.144;14.118;2024-03-29T13:35:59;2.28;;;0.50;;
8331;SDS011;4203;48.144;14.118;2024-03-29T13:38:27;1.75;;;0.60;;
8331;SDS011;4203;48.144;14.118;2024-03-29T13:40:55;1.45;;;0.50;;
8331;SDS011;4203;48.144;14.118;2024-03-29T13:43:22;2.13;;;0.50;;
8331;SDS011;4203;48.144;14.118;2024-03-29T13:45:52;1.08;;;0.50;;
8331;SDS011;4203;48.144;14.118;2024-03-29T13:48:19;0.95;;;0.60;;
8331;SDS011;4203;48.144;14.118;2024-03-29T13:50:46;1.77;;;0.70;;
8331;SDS011;4203;48.144;14.118;2024-03-29T13:53:15;0.70;;;0.70;;
8331;SDS011;4203;48.144;14.118;2024-03-29T13:55:42;1.50;;;0.60;;
8331;SDS011;4203;48.144;14.118;2024-03-29T13:58:10;1.50;;;0.55;;
8331;SDS011;4203;48.144;14.118;2024-03-29T14:00:37;2.35;;;0.60;;
8331;SDS011;4203;48.144;14.118;2024-03-29T14:03:06;0.60;;;0.38;;
8331;SDS011;4203;48.144;14.118;2024-03-29T14:05:33;3.30;;;0.68;;
8331;SDS011;4203;48.144;14.118;2024-03-29T14:08:01;1.75;;;0.60;;
8331;SDS011;4203;48.144;14.118;2024-03-29T14:10:28;0.68;;;0.52;;
8331;SDS011;4203;48.144;14.118;2024-03-29T14:12:56;1.02;;;0.80;;
8331;SDS011;4203;48.144;14.118;2024-03-29T14:15:25;1.10;;;0.70;;
8331;SDS011;4203;48.144;14.118;2024-03-29T14:17:52;0.68;;;0.68;;
8331;SDS011;4203;48.144;14.118;2024-03-29T14:20:21;1.15;;;0.63;;
8331;SDS011;4203;48.144;14.118;2024-03-29T14:22:48;0.60;;;0.60;;
8331;SDS011;4203;48.144;14.118;2024-03-29T14:25:21;0.30;;;0.30;;
8331;SDS011;4203;48.144;14.118;2024-03-29T14:27:48;0.60;;;0.60;;
8331;SDS011;4203;48.144;14.118;2024-03-29T14:30:22;0.43;;;0.43;;
8331;SDS011;4203;48.144;14.118;2024-03-29T14:32:50;1.77;;;0.70;;
8331;SDS011;4203;48.144;14.118;2024-03-29T14:35:18;0.77;;;0.70;;
8331;SDS011;4203;48.144;14.118;2024-03-29T14:37:47;0.32;;;0.32;;
8331;SDS011;4203;48.144;14.118;2024-03-29T14:40:15;1.52;;;0.60;;
8331;SDS011;4203;48.144;14.118;2024-03-29T14:42:43;0.65;;;0.50;;
8331;SDS011;4203;48.144;14.118;2024-03-29T14:45:11;0.50;;;0.50;;
8331;SDS011;4203;48.144;14.118;2024-03-29T14:47:38;1.48;;;0.50;;
8331;SDS011;4203;48.144;14.118;2024-03-29T14:50:06;0.47;;;0.47;;
8331;SDS011;4203;48.144;14.118;2024-03-29T14:52:35;1.20;;;0.70;;
8331;SDS011;4203;48.144;14.118;2024-03-29T14:55:03;2.17;;;0.60;;
8331;SDS011;4203;48.144;14.118;2024-03-29T14:57:31;1.25;;;0.50;;
8331;SDS011;4203;48.144;14.118;2024-03-29T14:59:58;1.35;;;0.50;;
8331;SDS011;4203;48.144;14.118;2024-03-29T15:02:25;0.60;;;0.60;;
8331;SDS011;4203;48.144;14.118;2024-03-29T15:04:52;0.65;;;0.52;;
8331;SDS011;4203;48.144;14.118;2024-03-29T15:07:19;0.55;;;0.55;;
8331;SDS011;4203;48.144;14.118;2024-03-29T15:09:50;1.55;;;0.70;;
8331;SDS011;4203;48.144;14.118;2024-03-29T15:12:18;2.15;;;0.57;;
8331;SDS011;4203;48.144;14.118;2024-03-29T15:14:46;0.40;;;0.40;;
8331;SDS011;4203;48.144;14.118;2024-03-29T15:17:13;2.25;;;0.70;;
8331;SDS011;4203;48.144;14.118;2024-03-29T15:19:40;0.60;;;0.60;;
8331;SDS011;4203;48.144;14.118;2024-03-29T15:22:07;0.50;;;0.50;;
8331;SDS011;4203;48.144;14.118;2024-03-29T15:24:37;1.55;;;0.70;;
8331;SDS011;4203;48.144;14.118;2024-03-29T15:27:06;0.60;;;0.60;;
8331;SDS011;4203;48.144;14.118;2024-03-29T15:29:41;0.45;;;0.45;;
8331;SDS011;4203;48.144;14.118;2024-03-29T15:32:07;0.60;;;0.60;;
8331;SDS011;4203;48.144;14.118;2024-03-29T15:34:35;0.50;;;0.50;;
8331;SDS011;4203;48.144;14.118;2024-03-29T15:37:02;1.25;;;0.47;;
8331;SDS011;4203;48.144;14.118;2024-03-29T15:39:30;1.48;;;0.60;;
8331;SDS011;4203;48.144;14.118;2024-03-29T15:41:57;0.68;;;0.68;;
8331;SDS011;4203;48.144;14.118;2024-03-29T15:44:26;0.40;;;0.40;;
8331;SDS011;4203;48.144;14.118;2024-03-29T15:46:53;0.60;;;0.60;;
8331;SDS011;4203;48.144;14.118;2024-03-29T15:49:20;0.50;;;0.50;;
8331;SDS011;4203;48.144;14.118;2024-03-29T15:51:48;0.68;;;0.60;;
8331;SDS011;4203;48.144;14.118;2024-03-29T15:54:15;0.77;;;0.77;;
8331;SDS011;4203;48.144;14.118;2024-03-29T15:56:45;0.85;;;0.65;;
8331;SDS011;4203;48.144;14.118;2024-03-29T15:59:12;0.47;;;0.43;;
8331;SDS011;4203;48.144;14.118;2024-03-29T16:01:42;0.73;;;0.73;;
8331;SDS011;4203;48.144;14.118;2024-03-29T16:04:09;0.57;;;0.50;;
8331;SDS011;4203;48.144;14.118;2024-03-29T16:06:36;2.70;;;0.47;;
8331;SDS011;4203;48.144;14.118;2024-03-29T16:09:04;4.55;;;0.77;;
8331;SDS011;4203;48.144;14.118;2024-03-29T16:11:34;1.13;;;0.63;;
8331;SDS011;4203;48.144;14.118;2024-03-29T16:14:02;0.50;;;0.50;;
8331;SDS011;4203;48.144;14.118;2024-03-29T16:16:30;4.25;;;0.70;;
8331;SDS011;4203;48.144;14.118;2024-03-29T16:19:00;0.60;;;0.60;;
8331;SDS011;4203;48.144;14.118;2024-03-29T16:21:26;1.60;;;0.88;;
8331;SDS011;4203;48.144;14.118;2024-03-29T16:23:54;0.50;;;0.50;;
8331;SDS011;4203;48.144;14.118;2024-03-29T16:26:20;0.60;;;0.60;;
8331;SDS011;4203;48.144;14.118;2024-03-29T16:28:47;1.55;;;0.82;;
8331;SDS011;4203;48.144;14.118;2024-03-29T16:31:17;0.90;;;0.85;;
8331;SDS011;4203;48.144;14.118;2024-03-29T16:33:44;0.85;;;0.73;;
8331;SDS011;4203;48.144;14.118;2024-03-29T16:36:12;1.35;;;0.57;;
8331;SDS011;4203;48.144;14.118;2024-03-29T16:38:39;1.83;;;0.70;;
8331;SDS011;4203;48.144;14.118;2024-03-29T16:41:06;0.80;;;0.80;;
8331;SDS011;4203;48.144;14.118;2024-03-29T16:43:34;1.17;;;1.00;;
8331;SDS011;4203;48.144;14.118;2024-03-29T16:46:00;1.00;;;0.80;;
8331;SDS011;4203;48.144;14.118;2024-03-29T16:48:27;3.33;;;0.98;;
8331;SDS011;4203;48.144;14.118;2024-03-29T16:50:53;1.35;;;0.60;;
8331;SDS011;4203;48.144;14.118;2024-03-29T16:53:22;0.80;;;0.80;;
8331;SDS011;4203;48.144;14.118;2024-03-29T16:55:48;0.65;;;0.65;;
8331;SDS011;4203;48.144;14.118;2024-03-29T16:58:16;1.02;;;0.90;;